Tiempo atmosférico en la estación meteorológica de La Póveda de Soria, Barriomartín, Soria (1260 m.)



Fecha
DESCASC
Temp. máxima en grados centígrados (hora)
DESCASC
Temp. mínima en grados centígrados (hora)
DESCASC
Temp. media en grados centígrados
DESCASC
Racha de viento máxima en m/sg (hora)
DESCASC
Velocidad máxima media en intervalos de 10 minutos(hora)
DESCASC
Precipitaciones diarias en mm
DESCASC
Precipitaciones de 00:00 a 06:00 en mm
DESCASC
Precipitaciones de 06:00 a 12:00 en mm
DESCASC
Precipitaciones de 12:00 a 18:00 en mm
DESCASC
Precipitaciones de 18:00 a 24:00 en mm
DESCASC
06-12-2018 14.1 (15:20) -1.4 (23:59) 6.4 7.5 (19:00) 5.83 (19:00) 0 0 0 0 0
05-12-2018 16.1 (15:20) 0.9 (08:30) 8.5 8.61 (16:20) 5 (16:20) 0.2 0.2 0 0 0
04-12-2018 11.5 (15:40) 1.5 (07:50) 6.5 3.89 (22:40) 2.5 (21:40) 0 0 0 0 0
03-12-2018 12.2 (15:30) 0 (00:00) 6.1 5 (15:50) 2.5 (04:00) 0 0 0 0 0
02-12-2018 13.7 (15:30) 0.5 (00:00) 7.1 10 (15:20) 5.28 (16:50) 0 0 0 0 0
01-12-2018 8.5 (15:10) -2.1 (-00:0) 3.2 3.89 (13:50) 2.22 (14:00) 0 0 0 0 0
30-11-2018 7.3 (14:30) -2.5 (-00:0) 2.4 8.61 (16:00) 4.72 (14:20) 0.2 0 0.2 0 0
29-11-2018 12.8 (15:00) -4.9 (-00:0) 4 10.28 (20:00) 4.72 (14:30) 4.8 0 0 0 4.8
28-11-2018 12.4 (13:50) -1.9 (-00:0) 5.2 4.17 (15:20) 2.78 (04:10) 0 0 0 0 0
27-11-2018 10.2 (14:40) -1.2 (-00:0) 4.5 7.5 (03:00) 3.61 (01:30) 0 0 0 0 0
25-11-2018 8.8 (15:10) 0.9 (00:00) 4.9 7.22 (04:10) 4.17 (14:40) 11.6 9.8 1.6 0 0.2
24-11-2018 6.3 (15:10) 0.9 (00:00) 3.6 9.17 (16:00) 4.17 (16:00) 0.2 0 0 0 0.2
23-11-2018 7.2 (14:30) 0.8 (00:00) 4 9.72 (13:30) 4.44 (12:50) 7.4 3 4.2 0.2 0
22-11-2018 5.4 (16:20) 1.2 (00:00) 3.3 5.83 (14:50) 3.33 (11:20) 0.2 0.2 0 0 0
21-11-2018 7.2 (13:40) 1.9 (00:00) 4.5 11.11 (10:10) 5.56 (11:50) 7 1.8 1.6 2.2 1.4
20-11-2018 6.8 (14:50) -0.2 (00:00) 3.3 8.61 (13:50) 3.89 (16:20) 8 0.6 4.6 2.2 0.6
19-11-2018 8.9 (14:40) 0.2 (00:00) 4.5 6.67 (00:10) 3.06 (00:10) 0.6 0.6 0 0 0
18-11-2018 7.5 (12:40) 3.1 (00:00) 5.3 8.61 (17:50) 4.72 (13:10) 2.4 0 0 0 2.4
17-11-2018 12.3 (15:20) 3.2 (00:00) 7.8 5.83 (16:10) 3.33 (16:00) 0 0 0 0 0
16-11-2018 11.4 (15:20) 4.2 (00:00) 7.8 6.11 (12:30) 3.61 (12:30) 0.4 0 0 0.4 0
15-11-2018 11.4 (13:30) 4.2 (00:00) 7.8 5 (08:00) 2.5 (08:20) 0 0 0 0 0
14-11-2018 12.7 (13:10) 1.7 (00:00) 7.2 6.11 (13:50) 3.33 (15:30) 0 0 0 0 0
13-11-2018 15.3 (14:40) 2.5 (00:00) 8.9 5 (15:10) 2.78 (15:00) 0.2 0.2 0 0 0
12-11-2018 9.9 (15:00) 7 (00:00) 8.4 12.78 (01:00) 6.39 (00:50) 2.6 0 0 0 2.6
11-11-2018 11.9 (13:10) 7.2 (00:00) 9.5 13.89 (07:10) 6.94 (10:30) 0.2 0 0 0.2 0
10-11-2018 9.7 (13:30) 5 (00:00) 7.3 14.17 (18:00) 6.67 (23:50) 13.8 0.6 8.8 4.2 0.2

Gráficas

Temp. máximas Temp. mínimas Temp. medias Precipitaciones Rachas de viento máximas Velocidades máximas media en intervalos de 10 minutos

Datos horarios

Fecha y hora oficial Temperatura (ºC) Velocidad del viento (km/h) Dirección del viento Racha (km/h) Dirección de racha Precipitación (mm) Presión (hPa) Tendencia (hPa) Humedad (%)
2018-12-09 23:00:00 3.6 22 Norte 34 Norte 0 -- -- 85
2018-12-09 22:00:00 4 14 Norte 26 Norte 0 -- -- 85
2018-12-09 21:00:00 4.7 14 Norte 24 Nordeste 0 -- -- 81
2018-12-09 20:00:00 5.3 9 Nordeste 19 Norte 0 -- -- 74
2018-12-09 19:00:00 6.3 13 Nordeste 30 Norte 0 -- -- 67
2018-12-09 18:00:00 8.2 7 Nordeste 29 Noroeste 0 -- -- 49
2018-12-09 17:00:00 10.2 11 Norte 34 Noroeste 0 -- -- 35
2018-12-09 16:00:00 12.1 18 Noroeste 45 Noroeste 0 -- -- 28
2018-12-09 15:00:00 13.2 24 Norte 50 Noroeste 0 -- -- 25
2018-12-09 14:00:00 13.2 19 Noroeste 44 Noroeste 0 -- -- 27
2018-12-09 13:00:00 12.8 21 Norte 39 Noroeste 0 -- -- 27
2018-12-09 12:00:00 12.5 16 Noroeste 34 Noroeste 0 -- -- 32
2018-12-09 11:00:00 9.1 5 Sudeste 14 Sudeste 0 -- -- 73
2018-12-09 10:00:00 6.5 0 Calma 10 Noroeste 0 -- -- 83
2018-12-09 09:00:00 1.5 3 Noroeste 9 Norte 0 -- -- 98
2018-12-09 08:00:00 -0.8 4 Norte 8 Norte 0 -- -- 95
2018-12-09 07:00:00 0.3 5 Norte 8 Norte 0 -- -- 95
2018-12-09 06:00:00 0.4 0 Calma 8 Norte 0 -- -- 93
2018-12-09 05:00:00 1 3 Noroeste 5 Oeste 0 -- -- 93
2018-12-09 04:00:00 1.5 4 Norte 12 Norte 0 -- -- 92
2018-12-09 03:00:00 0.5 2 Norte 10 Norte 0 -- -- 93
2018-12-09 02:00:00 0.4 0 Calma 5 Norte 0 -- -- 91
2018-12-09 01:00:00 1.4 3 Oeste 9 Noroeste 0 -- -- 89
2018-12-09 00:00:00 1.5 4 Norte 8 Sudoeste 0 -- -- 90
2018-12-08 23:00:00 1.8 0 Calma 9 Norte 0 -- -- 88
2018-12-08 22:00:00 2.6 6 Norte 14 Norte 0 -- -- 88
2018-12-08 21:00:00 1.9 7 Norte 10 Norte 0 -- -- 87
2018-12-08 20:00:00 2.7 5 Norte 10 Norte 0 -- -- 83
2018-12-08 19:00:00 4 5 Norte 10 Norte 0 -- -- 79
2018-12-08 18:00:00 7 2 Sudeste 8 Sur 0 -- -- 68
2018-12-08 17:00:00 9.9 4 Sudoeste 13 Sudeste 0 -- -- 59
2018-12-08 16:00:00 11.3 5 Sur 17 Norte 0 -- -- 54
2018-12-08 15:00:00 12.1 12 Norte 25 Norte 0 -- -- 31
2018-12-08 14:00:00 10.1 3 Sur 10 Sudeste 0 -- -- 63
2018-12-08 13:00:00 8 6 Sudeste 15 Sur 0 -- -- 73
2018-12-08 12:00:00 6.6 9 Sur 21 Sudeste 0 -- -- 77
2018-12-08 11:00:00 5.6 6 Sudeste 18 Oeste 0 -- -- 76
2018-12-08 10:00:00 3.5 5 Noroeste 26 Norte 0 -- -- 86
2018-12-08 09:00:00 2.8 10 Norte 20 Norte 0 -- -- 93
2018-12-08 08:00:00 2.3 2 Sudoeste 14 Noroeste 0 -- -- 90
2018-12-08 07:00:00 3.6 12 Norte 23 Norte 0 -- -- 90
2018-12-08 06:00:00 3.3 5 Norte 12 Noroeste 0 -- -- 91
2018-12-08 05:00:00 4.4 4 Oeste 13 Norte 0 -- -- 89
2018-12-08 04:00:00 4.7 3 Norte 8 Norte 0 -- -- 91
2018-12-08 03:00:00 4.9 3 Noroeste 8 Norte 0 -- -- 92
2018-12-08 02:00:00 4.9 5 Norte 11 Norte 0 -- -- 92
2018-12-08 01:00:00 5.1 6 Norte 16 Norte 0 -- -- 92
2018-12-08 00:00:00 5.4 7 Norte 21 Norte 0 -- -- 91
2018-12-07 23:00:00 5.8 13 Norte 25 Norte 0 -- -- 89
2018-12-07 22:00:00 6.4 13 Norte 22 Norte 0 -- -- 87
2018-12-07 21:00:00 7.3 6 Norte 15 Noroeste 0 -- -- 83
2018-12-07 20:00:00 7 4 Norte 18 Norte 0 -- -- 80
2018-12-07 19:00:00 7.9 9 Norte 20 Norte 0 -- -- 74
2018-12-07 18:00:00 8.2 7 Norte 13 Norte 0 -- -- 75
2018-12-07 17:00:00 9.6 0 Calma 8 Sudoeste 0 -- -- 68
2018-12-07 16:00:00 10.8 5 Sur 12 Sur 0 -- -- 63
2018-12-07 15:00:00 11.1 6 Sur 12 Sudoeste 0 -- -- 65
2018-12-07 14:00:00 8.9 3 Sur 10 Sur 0 -- -- 70
2018-12-07 13:00:00 7.4 7 Sur 12 Sur 0 -- -- 70
2018-12-07 12:00:00 6.3 4 Sudoeste 10 Sur 0 -- -- 71
2018-12-07 11:00:00 3.8 4 Sudoeste 9 Sur 0 -- -- 77
2018-12-07 10:00:00 -0.1 0 Calma 4 Sudeste 0 -- -- 81
2018-12-07 09:00:00 -4.2 3 Norte 7 Norte 0 -- -- 91
2018-12-07 08:00:00 -5.4 3 Norte 10 Norte 0 -- -- 90
2018-12-07 07:00:00 -5.2 6 Norte 17 Norte 0 -- -- 93
2018-12-07 06:00:00 -5.9 3 Norte 7 Norte 0 -- -- 91
2018-12-07 05:00:00 -5.3 0 Calma 4 Norte 0 -- -- 90
2018-12-07 04:00:00 -4.5 0 Calma 8 Noroeste 0 -- -- 90
2018-12-07 03:00:00 -2.8 5 Norte 7 Norte 0 -- -- 92
2018-12-07 02:00:00 -2.9 0 Calma 10 Norte 0 -- -- 85
2018-12-07 01:00:00 -1.6 6 Norte 12 Norte 0 -- -- 87
2018-12-07 00:00:00 -1.4 5 Norte 8 Norte 0 -- -- 89
2018-12-06 23:00:00 -0.1 5 Norte 10 Norte 0 -- -- 85
2018-12-06 22:00:00 0.7 7 Norte 12 Norte 0 -- -- 88
2018-12-06 21:00:00 2 8 Norte 16 Norte 0 -- -- 86
2018-12-06 20:00:00 4.3 10 Norte 23 Norte 0 -- -- 88
2018-12-06 19:00:00 5.9 21 Norte 27 Norte 0 -- -- 87
2018-12-06 18:00:00 6.1 10 Norte 14 Norte 0 -- -- 82
2018-12-06 17:00:00 11 4 Sudeste 10 Sudeste 0 -- -- 68
2018-12-06 16:00:00 12.8 5 Sudeste 10 Sur 0 -- -- 62
2018-12-06 15:00:00 13.4 5 Sudeste 11 Sur 0 -- -- 60
2018-12-06 14:00:00 13 6 Sur 17 Sudeste 0 -- -- 55
2018-12-06 13:00:00 11.9 11 Sur 15 Sur 0 -- -- 62
2018-12-06 12:00:00 11.9 6 Sur 9 Sur 0 -- -- 64
2018-12-06 11:00:00 8.8 3 Sudeste 11 Sur 0 -- -- 74
2018-12-06 10:00:00 6.6 0 Calma 8 Norte 0 -- -- 86
2018-12-06 09:00:00 2.8 6 Norte 14 Norte 0 -- -- 93
2018-12-06 08:00:00 1.1 9 Norte 13 Norte 0 -- -- 93
2018-12-06 07:00:00 1.6 2 Norte 10 Norte 0 -- -- 94
2018-12-06 06:00:00 1.3 3 Norte 6 Norte 0 -- -- 93
2018-12-06 05:00:00 2 2 Nordeste 6 Norte 0 -- -- 93
2018-12-06 04:00:00 3.2 5 Norte 17 Noroeste 0 -- -- 90
2018-12-06 03:00:00 3.4 12 Noroeste 17 Noroeste 0 -- -- 93
2018-12-06 02:00:00 2.4 8 Norte 13 Nordeste 0 -- -- 90
2018-12-06 01:00:00 2.4 3 Noroeste 12 Norte 0 -- -- 86
2018-12-06 00:00:00 3.6 6 Norte 13 Noroeste 0 -- -- 83
2018-12-05 23:00:00 2.8 8 Norte 12 Norte 0 -- -- 81
2018-12-05 22:00:00 4.2 5 Norte 10 Norte 0 -- -- 69
2018-12-05 21:00:00 5.5 9 Norte 17 Norte 0 -- -- 60
2018-12-05 20:00:00 5.2 5 Noroeste 11 Norte 0 -- -- 61
2018-12-05 19:00:00 7.7 6 Oeste 13 Oeste 0 -- -- 59
2018-12-05 18:00:00 10.9 9 Sudoeste 16 Sudoeste 0 -- -- 50
2018-12-05 17:00:00 13.7 4 Sudoeste 31 Sudoeste 0 -- -- 44
2018-12-05 16:00:00 15.6 6 Noroeste 21 Oeste 0 -- -- 40
2018-12-05 15:00:00 15.8 4 Nordeste 21 Sudeste 0 -- -- 43
2018-12-05 14:00:00 14.5 12 Sur 19 Sur 0 -- -- 65
2018-12-05 13:00:00 12.4 8 Sur 14 Sur 0 -- -- 70
2018-12-05 12:00:00 11.6 5 Sudeste 8 Sudeste 0 -- -- 76
2018-12-05 11:00:00 9.1 2 Sudoeste 6 Norte 0 -- -- 85
2018-12-05 10:00:00 4.5 4 Norte 12 Norte 0 -- -- 93
2018-12-05 09:00:00 1.5 9 Norte 12 Norte 0 -- -- 95
2018-12-05 08:00:00 1.1 8 Norte 13 Norte 0 -- -- 95
2018-12-05 07:00:00 1.4 8 Norte 10 Norte 0 -- -- 95
2018-12-05 06:00:00 1.5 7 Norte 12 Norte 0 -- -- 96
2018-12-05 05:00:00 1.8 8 Norte 13 Norte 0 -- -- 96
2018-12-05 04:00:00 2.2 8 Norte 13 Norte 0.2 -- -- 96
2018-12-05 03:00:00 2.1 8 Norte 11 Norte 0 -- -- 96
2018-12-05 02:00:00 2.4 8 Norte 14 Norte 0 -- -- 95
2018-12-05 01:00:00 2.9 7 Norte 12 Norte 0 -- -- 96
2018-12-05 00:00:00 3.2 8 Norte 13 Noroeste 0 -- -- 95
2018-12-04 23:00:00 3.4 7 Norte 14 Norte 0 -- -- 97
2018-12-04 22:00:00 3.6 7 Norte 12 Norte 0 -- -- 96
2018-12-04 21:00:00 3.4 9 Norte 12 Norte 0 -- -- 96
2018-12-04 20:00:00 3.8 6 Norte 10 Norte 0 -- -- 95
2018-12-04 19:00:00 4.9 5 Norte 9 Norte 0 -- -- 93
2018-12-04 18:00:00 6.7 5 Norte 8 Norte 0 -- -- 89
2018-12-04 17:00:00 10 0 Calma 8 Sudeste 0 -- -- 85
2018-12-04 16:00:00 11.1 7 Sur 12 Sur 0 -- -- 81
2018-12-04 15:00:00 11.2 5 Sudeste 8 Sur 0 -- -- 81
2018-12-04 14:00:00 10.9 4 Sudeste 9 Sudoeste 0 -- -- 81
2018-12-04 13:00:00 11.1 5 Sur 8 Sur 0 -- -- 84
2018-12-04 12:00:00 8.7 0 Calma 5 Sudeste 0 -- -- 98
2018-12-04 11:00:00 6.6 3 Sudeste 4 Sudeste 0 -- -- 99
2018-12-04 10:00:00 4.9 3 Sudeste 8 Norte 0 -- -- 99
2018-12-04 09:00:00 3.1 6 Norte 9 Norte 0 -- -- 99
2018-12-04 08:00:00 1.6 3 Norte 5 Nordeste 0 -- -- 98
2018-12-04 07:00:00 2.5 4 Norte 6 Norte 0 -- -- 98
2018-12-04 06:00:00 2.8 3 Norte 7 Norte 0 -- -- 98
2018-12-04 05:00:00 2.6 5 Norte 9 Norte 0 -- -- 98
2018-12-04 04:00:00 2.3 5 Norte 9 Norte 0 -- -- 99
2018-12-04 03:00:00 2.6 7 Norte 9 Norte 0 -- -- 99
2018-12-04 02:00:00 1.6 4 Noroeste 5 Noroeste 0 -- -- 97
2018-12-04 01:00:00 2.6 3 Norte 7 Norte 0 -- -- 96
2018-12-04 00:00:00 3.7 2 Sudoeste 10 Norte 0 -- -- 96
2018-12-03 23:00:00 3.5 3 Noroeste 6 Norte 0 -- -- 94
2018-12-03 22:00:00 5.9 5 Norte 12 Norte 0 -- -- 95
2018-12-03 21:00:00 6.6 4 Norte 8 Norte 0 -- -- 95
2018-12-03 20:00:00 5.7 4 Norte 8 Norte 0 -- -- 94
2018-12-03 19:00:00 7.1 0 Calma 11 Sudoeste 0 -- -- 91
2018-12-03 18:00:00 9 3 Oeste 11 Sur 0 -- -- 87
2018-12-03 17:00:00 10.8 4 Sudoeste 16 Sudeste 0 -- -- 83
2018-12-03 16:00:00 12 5 Sudoeste 18 Noroeste 0 -- -- 79
2018-12-03 15:00:00 11.4 5 Sudeste 12 Sudeste 0 -- -- 84
2018-12-03 14:00:00 10.4 3 Nordeste 7 Este 0 -- -- 85
2018-12-03 13:00:00 7.6 0 Calma 4 Este 0 -- -- 98
2018-12-03 12:00:00 5.6 0 Calma 11 Sur 0 -- -- 97
2018-12-03 11:00:00 4.9 4 Sur 8 Sur 0 -- -- 98
2018-12-03 10:00:00 2.6 0 Calma 9 Norte 0 -- -- 98
2018-12-03 09:00:00 0.7 4 Norte 7 Norte 0 -- -- 98
2018-12-03 08:00:00 0.3 2 Norte 9 Norte 0 -- -- 97
2018-12-03 07:00:00 0.2 4 Sur 11 Noroeste 0 -- -- 96
2018-12-03 06:00:00 0.4 6 Norte 14 Norte 0 -- -- 97
2018-12-03 05:00:00 0.4 2 Norte 12 Norte 0 -- -- 95
2018-12-03 04:00:00 0.8 9 Norte 13 Norte 0 -- -- 97
2018-12-03 03:00:00 0.2 7 Norte 11 Norte 0 -- -- 96
2018-12-03 02:00:00 0 7 Norte 10 Norte 0 -- -- 95
2018-12-03 01:00:00 0.2 6 Norte 9 Noroeste 0 -- -- 94
2018-12-03 00:00:00 0.7 7 Norte 12 Norte 0 -- -- 94
2018-12-02 23:00:00 0.6 5 Norte 12 Noroeste 0 -- -- 93
2018-12-02 22:00:00 1.2 5 Norte 9 Norte 0 -- -- 90
2018-12-02 21:00:00 1.5 5 Norte 8 Norte 0 -- -- 87
2018-12-02 20:00:00 2.7 2 Noroeste 5 Norte 0 -- -- 80
2018-12-02 19:00:00 5.3 0 Calma 13 Sudeste 0 -- -- 72
2018-12-02 18:00:00 7.6 7 Sudeste 22 Oeste 0 -- -- 67
2018-12-02 17:00:00 10.5 19 Oeste 30 Oeste 0 -- -- 57
2018-12-02 16:00:00 12.9 14 Oeste 36 Sudoeste 0 -- -- 52
2018-12-02 15:00:00 13.2 13 Oeste 30 Oeste 0 -- -- 51
2018-12-02 14:00:00 13.3 13 Oeste 23 Oeste 0 -- -- 46
2018-12-02 13:00:00 11.1 8 Sur 17 Sudeste 0 -- -- 57
2018-12-02 12:00:00 10.6 9 Sudeste 16 Sudeste 0 -- -- 58
2018-12-02 11:00:00 7.5 0 Calma 6 Norte 0 -- -- 86
2018-12-02 10:00:00 4.2 4 Norte 10 Norte 0 -- -- 96
2018-12-02 09:00:00 1.9 4 Norte 10 Norte 0 -- -- 97
2018-12-02 08:00:00 1.1 6 Norte 10 Norte 0 -- -- 96
2018-12-02 07:00:00 1.1 4 Norte 8 Norte 0 -- -- 95
2018-12-02 06:00:00 2.4 2 Norte 8 Noroeste 0 -- -- 95
2018-12-02 05:00:00 2.5 6 Norte 13 Norte 0 -- -- 96
2018-12-02 04:00:00 1.6 8 Norte 10 Noroeste 0 -- -- 97
2018-12-02 03:00:00 1.1 3 Norte 9 Norte 0 -- -- 95
2018-12-02 02:00:00 1.9 6 Norte 9 Noroeste 0 -- -- 93
2018-12-02 01:00:00 3.4 0 Calma 5 Oeste 0 -- -- 92
2018-12-02 00:00:00 3.5 0 Calma 6 Oeste 0 -- -- 93
2018-12-01 23:00:00 3.3 4 Sudoeste 6 Oeste 0 -- -- 93
2018-12-01 22:00:00 3 3 Norte 5 Noroeste 0 -- -- 92
2018-12-01 21:00:00 3.4 2 Este 5 Oeste 0 -- -- 89
2018-12-01 20:00:00 3.9 2 Nordeste 8 Sur 0 -- -- 88
2018-12-01 19:00:00 3.6 3 Norte 6 Oeste 0 -- -- 86
2018-12-01 18:00:00 6 0 Calma 9 Sudeste 0 -- -- 77
2018-12-01 17:00:00 7.5 5 Sur 9 Sur 0 -- -- 73
2018-12-01 16:00:00 8 5 Sur 10 Sur 0 -- -- 68
2018-12-01 15:00:00 8.4 5 Sudeste 12 Sudeste 0 -- -- 71
2018-12-01 14:00:00 7.6 8 Sudeste 14 Sur 0 -- -- 73
2018-12-01 13:00:00 4.9 4 Sur 7 Sudoeste 0 -- -- 87
2018-12-01 12:00:00 3.3 2 Oeste 4 Norte 0 -- -- 87
2018-12-01 11:00:00 2.3 0 Calma 5 Oeste 0 -- -- 89
2018-12-01 10:00:00 1.6 0 Calma 4 Sur 0 -- -- 92
2018-12-01 09:00:00 0.6 2 Noroeste 9 Noroeste 0 -- -- 94
2018-12-01 08:00:00 0.2 3 Norte 5 Noroeste 0 -- -- 95
2018-12-01 07:00:00 -0.3 0 Calma 5 Norte 0 -- -- 95
2018-12-01 06:00:00 -0.7 0 Calma 5 Sur 0 -- -- 94
2018-12-01 05:00:00 -0.3 0 Calma 5 Noroeste 0 -- -- 95
2018-12-01 04:00:00 -0.6 3 Norte 7 Norte 0 -- -- 95
2018-12-01 03:00:00 -1.9 5 Norte 6 Nordeste 0 -- -- 94
2018-12-01 02:00:00 -1.9 5 Norte 9 Norte 0 -- -- 94
2018-12-01 01:00:00 -1.6 5 Norte 10 Norte 0 -- -- 93
2018-12-01 00:00:00 -2.1 8 Norte 11 Norte 0 -- -- 94
2018-11-30 23:00:00 -1.9 6 Norte 8 Norte 0 -- -- 93
2018-11-30 22:00:00 -1.9 3 Norte 8 Oeste 0 -- -- 91
2018-11-30 21:00:00 -1.5 0 Calma 6 Sudeste 0 -- -- 90
2018-11-30 20:00:00 -0.5 3 Este 7 Noroeste 0 -- -- 88
2018-11-30 19:00:00 1.3 2 Nordeste 18 Noroeste 0 -- -- 83
2018-11-30 18:00:00 2.4 10 Noroeste 21 Norte 0 -- -- 82
2018-11-30 17:00:00 4 14 Norte 24 Norte 0 -- -- 74
2018-11-30 16:00:00 4.7 17 Norte 31 Norte 0 -- -- 73
2018-11-30 15:00:00 6.9 17 Norte 28 Norte 0 -- -- 65
2018-11-30 14:00:00 6.9 13 Norte 26 Norte 0 -- -- 66
2018-11-30 13:00:00 6.3 9 Norte 24 Norte 0 -- -- 71
2018-11-30 12:00:00 5.2 15 Noroeste 24 Noroeste 0 -- -- 83
2018-11-30 11:00:00 3.9 10 Noroeste 20 Noroeste 0.2 -- -- 89
2018-11-30 10:00:00 0.8 5 Noroeste 11 Oeste 0 -- -- 97
2018-11-30 09:00:00 -0.7 0 Calma 3 Nordeste 0 -- -- 97
2018-11-30 08:00:00 -1 0 Calma 11 Norte 0 -- -- 95
2018-11-30 07:00:00 -0.5 6 Norte 11 Norte 0 -- -- 95
2018-11-30 06:00:00 0 5 Norte 8 Norte 0 -- -- 96
2018-11-30 05:00:00 1.3 0 Calma 8 Nordeste 0 -- -- 95
2018-11-30 04:00:00 1.6 3 Sudoeste 10 Sur 0 -- -- 95
2018-11-30 03:00:00 1.6 3 Oeste 7 Nordeste 0 -- -- 92
2018-11-30 02:00:00 2.9 3 Sudeste 14 Sur 0 -- -- 93
2018-11-30 01:00:00 3.7 4 Sudeste 24 Sudeste 0 -- -- 92
2018-11-30 00:00:00 4.1 5 Sudeste 13 Sur 0 -- -- 91
2018-11-29 23:00:00 4.6 4 Sur 24 Este 0.2 -- -- 88
2018-11-29 22:00:00 4.6 14 Sudeste 29 Sudeste 0.4 -- -- 89
2018-11-29 21:00:00 5.2 5 Este 30 Sudoeste 3.8 -- -- 87
2018-11-29 20:00:00 7.1 13 Oeste 37 Oeste 0.4 -- -- 81
2018-11-29 19:00:00 5.4 0 Calma 5 Sudeste 0 -- -- 59
2018-11-29 18:00:00 6.9 4 Sudeste 10 Sur 0 -- -- 44
2018-11-29 17:00:00 9.3 5 Sudoeste 17 Sur 0 -- -- 33
2018-11-29 16:00:00 10.9 6 Sudoeste 26 Sur 0 -- -- 33
2018-11-29 15:00:00 12.8 13 Sudoeste 29 Sur 0 -- -- 25
2018-11-29 14:00:00 11.4 10 Sur 20 Sudeste 0 -- -- 33
2018-11-29 13:00:00 10.9 10 Sur 20 Sudeste 0 -- -- 45
2018-11-29 12:00:00 10 13 Sudeste 19 Sur 0 -- -- 42
2018-11-29 11:00:00 7.9 5 Sudeste 10 Sudeste 0 -- -- 52
2018-11-29 10:00:00 1.8 0 Calma 8 Nordeste 0 -- -- 78
2018-11-29 09:00:00 -3 0 Calma 8 Nordeste 0 -- -- 87
2018-11-29 08:00:00 -4.7 5 Norte 9 Norte 0 -- -- 85
2018-11-29 07:00:00 -4.2 0 Calma 9 Norte 0 -- -- 81
2018-11-29 06:00:00 -3.8 2 Norte 8 Norte 0 -- -- 81
2018-11-29 05:00:00 -3 6 Norte 10 Norte 0 -- -- 83
2018-11-29 04:00:00 -3.1 6 Norte 9 Nordeste 0 -- -- 82
2018-11-29 03:00:00 -2.6 5 Norte 12 Norte 0 -- -- 81
2018-11-29 02:00:00 -2.4 5 Norte 12 Norte 0 -- -- 81
2018-11-29 01:00:00 -2.6 4 Norte 10 Norte 0 -- -- 80
2018-11-29 00:00:00 -1.9 4 Norte 12 Norte 0 -- -- 79
2018-11-28 23:00:00 -1.5 6 Norte 12 Norte 0 -- -- 80
2018-11-28 22:00:00 -1.6 6 Norte 11 Norte 0 -- -- 83
2018-11-28 21:00:00 -1.1 4 Norte 10 Norte 0 -- -- 82
2018-11-28 13:00:00 -- -- -- -- -- -- -- -- --
2018-11-28 12:00:00 9.6 5 Sur 9 Sudeste 0 -- -- 42
2018-11-28 11:00:00 7.3 0 Calma 4 Sudeste 0 -- -- 50
2018-11-28 10:00:00 3.3 3 Norte 8 Norte 0 -- -- 71
2018-11-28 09:00:00 -0.1 5 Norte 11 Norte 0 -- -- 82
2018-11-28 08:00:00 -1.2 4 Norte 11 Norte 0 -- -- 83
2018-11-28 07:00:00 -0.9 6 Norte 12 Norte 0 -- -- 83
2018-11-28 06:00:00 -0.1 7 Norte 10 Norte 0 -- -- 82
2018-11-28 05:00:00 1.2 6 Norte 14 Norte 0 -- -- 77
2018-11-28 04:00:00 -0.7 8 Norte 12 Norte 0 -- -- 86
2018-11-28 03:00:00 -1.6 5 Norte -- -- 0 -- -- 87
2018-11-28 02:00:00 -1.2 5 Norte 9 Norte 0 -- -- 87
2018-11-28 01:00:00 -1.2 4 Norte 9 Norte 0 -- -- 87
2018-11-28 00:00:00 -0.8 4 Norte 12 Norte 0 -- -- 85
2018-11-27 23:00:00 -0.9 7 Norte 12 Norte 0 -- -- 87
2018-11-27 22:00:00 -0.1 8 Norte 13 Norte 0 -- -- 89
2018-11-27 21:00:00 0.7 6 Norte 10 Norte 0 -- -- 89
2018-11-27 20:00:00 0.4 6 Norte 14 Norte 0 -- -- 90
2018-11-27 19:00:00 1.6 5 Norte 12 Norte 0 -- -- 85
2018-11-27 18:00:00 4.5 2 Oeste 8 Sudoeste 0 -- -- 72
2018-11-27 17:00:00 7.3 6 Sudoeste 17 Sudoeste 0 -- -- 63
2018-11-27 16:00:00 9.1 6 Oeste 10 Sudoeste 0 -- -- 63
2018-11-27 15:00:00 9.8 6 Sur 13 Sur 0 -- -- 59
2018-11-27 14:00:00 9.6 9 Noroeste 20 Noroeste 0 -- -- 51
2018-11-27 13:00:00 7.9 7 Sur 12 Sur 0 -- -- 65
2018-11-27 12:00:00 7.4 6 Sur 12 Sudeste 0 -- -- 68
2018-11-27 11:00:00 5 2 Este 5 Sur 0 -- -- 69
2018-11-27 10:00:00 2.5 3 Sur 6 Sur 0 -- -- 90
2018-11-27 09:00:00 -1 3 Norte 6 Noroeste 0 -- -- 95
2018-11-27 08:00:00 -1 4 Nordeste 8 Norte 0 -- -- 95
2018-11-27 07:00:00 -0.8 7 Norte 13 Norte 0 -- -- 95
2018-11-27 06:00:00 0.6 7 Norte 14 Norte 0 -- -- 90
2018-11-27 05:00:00 2 5 Norte 10 Noroeste 0 -- -- 88
2018-11-27 04:00:00 3.1 8 Norte 21 Norte 0 -- -- 86
2018-11-27 03:00:00 3 12 Norte 27 Norte 0 -- -- 89
2018-11-27 02:00:00 3 10 Norte 24 Nordeste 0 -- -- 89
2018-11-27 01:00:00 3.2 7 Nordeste 18 Nordeste 0 -- -- 88
2018-11-27 00:00:00 3.2 10 Este 23 Norte 0 -- -- 87
2018-11-26 23:00:00 3 9 Oeste 36 Noroeste 0 -- -- 90
2018-11-26 22:00:00 3.1 17 Norte 51 Norte 0 -- -- 87
2018-11-26 21:00:00 3 19 Norte 48 Noroeste 0 -- -- 86
2018-11-26 20:00:00 2.7 22 Noroeste 45 Norte 0 -- -- 87
2018-11-26 19:00:00 2.7 23 Norte 44 Norte 0.2 -- -- 91
2018-11-26 18:00:00 2.7 21 Norte 46 Norte 0.2 -- -- 91
2018-11-26 17:00:00 3 22 Norte 44 Noroeste 0.4 -- -- 91
2018-11-26 16:00:00 3.4 24 Noroeste 47 Noroeste 0.4 -- -- 89
2018-11-26 15:00:00 3.3 22 Noroeste 43 Noroeste 0.2 -- -- 89
2018-11-26 14:00:00 3.3 17 Norte 39 Noroeste 0.2 -- -- 88
2018-11-26 13:00:00 3.1 8 Norte 28 Noroeste 0 -- -- 84
2018-11-26 12:00:00 2.1 15 Noroeste 30 Norte 0 -- -- 90
2018-11-26 11:00:00 1.8 6 Norte 24 Norte 0 -- -- 91
2018-11-26 10:00:00 1.4 5 Nordeste 25 Norte 0 -- -- 92
2018-11-26 09:00:00 1.1 10 Norte 27 Norte 0.2 -- -- 93
2018-11-26 08:00:00 0.4 10 Norte 22 Norte 0 -- -- 92
2018-11-26 07:00:00 1 3 Nordeste 20 Noroeste 0.8 -- -- 94
2018-11-26 06:00:00 1.2 13 Norte 34 Norte 0.8 -- -- 92
2018-11-26 05:00:00 3.3 8 Oeste 28 Sudoeste 0.2 -- -- 95
2018-11-26 04:00:00 3.2 12 Sudoeste 23 Oeste 0.4 -- -- 95
2018-11-26 03:00:00 3 3 Sudeste 5 Sur 0.6 -- -- 94
2018-11-26 02:00:00 3 2 Este 9 Sudeste 0.2 -- -- 93
2018-11-26 01:00:00 3.2 0 Calma 4 Sudoeste 0.2 -- -- 90
2018-11-26 00:00:00 3.4 0 Calma 12 Noroeste 0.2 -- -- 87
2018-11-25 23:00:00 3.8 6 Oeste 12 Oeste 0 -- -- 82
2018-11-25 22:00:00 2 4 Sudoeste 12 Sur 0 -- -- 84
2018-11-25 21:00:00 1.2 3 Sudoeste 12 Norte 0 -- -- 85
2018-11-25 20:00:00 0.9 5 Norte 12 Norte 0 -- -- 83
2018-11-25 19:00:00 1.9 4 Nordeste 12 Nordeste 0 -- -- 78
2018-11-25 18:00:00 3.8 2 Norte 13 Sudoeste 0 -- -- 65
2018-11-25 17:00:00 7.7 8 Oeste 19 Oeste 0 -- -- 50
2018-11-25 16:00:00 8.4 11 Oeste 23 Oeste 0 -- -- 38
2018-11-25 15:00:00 8.7 13 Noroeste 26 Oeste 0 -- -- 42
2018-11-25 14:00:00 8.5 9 Noroeste 21 Noroeste 0 -- -- 56
2018-11-25 13:00:00 7.7 8 Norte 17 Oeste 0 -- -- 64
2018-11-25 12:00:00 7.2 11 Norte 19 Nordeste 0 -- -- 78
2018-11-25 11:00:00 6 9 Norte 24 Norte 0.2 -- -- 85
2018-11-25 10:00:00 4.6 12 Norte 19 Norte 0.2 -- -- 98
2018-11-25 09:00:00 3.9 12 Norte 20 Norte 0.6 -- -- 98
2018-11-25 08:00:00 3.4 2 Nordeste 4 Oeste 0.4 -- -- 99
2018-11-25 07:00:00 3.1 0 Calma 9 Sudeste 0.2 -- -- 98
2018-11-25 06:00:00 3 5 Sudeste 16 Sur 3 -- -- 98
2018-11-25 05:00:00 2.9 5 Sur 26 Sur 1.6 -- -- 98
2018-11-25 04:00:00 2.7 10 Sur 21 Sur 1.4 -- -- 98
2018-11-25 03:00:00 1.7 5 Sur 10 Sur 2 -- -- 97
2018-11-25 02:00:00 1.4 3 Sudoeste 5 Noroeste 1.2 -- -- 96
2018-11-25 01:00:00 1.3 0 Calma 6 Sur 0.6 -- -- 94
2018-11-25 00:00:00 2.2 8 Sur 28 Sudoeste 0.2 -- -- 89
2018-11-24 23:00:00 0.9 9 Sur 21 Sudeste 0 -- -- 93
2018-11-24 22:00:00 1.5 6 Sur 20 Sudeste 0 -- -- 92
2018-11-24 21:00:00 1.4 6 Sudeste 22 Sudeste 0 -- -- 92
2018-11-24 20:00:00 1.4 12 Sur 23 Sudeste 0 -- -- 93
2018-11-24 19:00:00 2.3 10 Sur 22 Sudoeste 0 -- -- 89
2018-11-24 18:00:00 4.1 13 Sur 22 Sur 0 -- -- 84
2018-11-24 17:00:00 5.1 5 Sur 23 Sudoeste 0 -- -- 79
2018-11-24 16:00:00 5.3 15 Sudoeste 33 Sudoeste 0 -- -- 75
2018-11-24 15:00:00 6.1 6 Sur 26 Sur 0 -- -- 76
2018-11-24 14:00:00 4.9 7 Sudeste 26 Sudoeste 0 -- -- 82
2018-11-24 13:00:00 5.1 10 Sudoeste 23 Sudoeste 0 -- -- 81
2018-11-24 12:00:00 4 11 Sur 19 Sudeste 0 -- -- 90
2018-11-24 11:00:00 2.9 8 Sur 13 Sur 0 -- -- 95
2018-11-24 10:00:00 1.4 5 Sur 17 Sur 0 -- -- 95
2018-11-24 09:00:00 1.4 8 Sudeste 16 Sur 0 -- -- 94
2018-11-24 08:00:00 1.4 6 Sur 12 Sur 0 -- -- 92
2018-11-24 07:00:00 1.6 3 Sur 14 Sudoeste 0 -- -- 90
2018-11-24 06:00:00 1.8 3 Oeste 15 Oeste 0 -- -- 87
2018-11-24 05:00:00 2.8 3 Norte 33 Oeste 0 -- -- 81
2018-11-24 04:00:00 2.8 14 Oeste 23 Oeste 0 -- -- 82
2018-11-24 03:00:00 2.5 9 Noroeste 22 Oeste 0 -- -- 85
2018-11-24 02:00:00 2.3 9 Oeste 21 Sudoeste 0 -- -- 87
2018-11-24 01:00:00 2.2 5 Sudoeste 21 Sur 0 -- -- 88
2018-11-24 00:00:00 2.7 6 Sur 24 Sudeste 0 -- -- 85
2018-11-23 23:00:00 1.5 2 Sur 15 Sudeste 0 -- -- 87
2018-11-23 22:00:00 1.5 5 Sudeste 15 Sudeste 0 -- -- 86
2018-11-23 21:00:00 1.4 3 Sudeste 12 Oeste 0 -- -- 85
2018-11-23 20:00:00 2 3 Sudoeste 9 Sudoeste 0 -- -- 85
2018-11-23 19:00:00 2.7 0 Calma 10 Sudoeste 0 -- -- 80
2018-11-23 18:00:00 3.6 5 Nordeste 15 Sur 0 -- -- 74
2018-11-23 17:00:00 4.8 6 Sudeste 20 Oeste 0.2 -- -- 71
2018-11-23 16:00:00 6.3 6 Sudoeste 27 Oeste 0 -- -- 70
2018-11-23 15:00:00 7 12 Sudoeste 26 Sudoeste 0 -- -- 72
2018-11-23 14:00:00 6.2 5 Noroeste 35 Oeste 0 -- -- 77
2018-11-23 13:00:00 6 15 Sudoeste 32 Sudoeste 0 -- -- 81
2018-11-23 12:00:00 3.2 9 Sudeste 16 Sudeste 0 -- -- 97
2018-11-23 11:00:00 2.4 6 Sur 18 Sur 0 -- -- 97
2018-11-23 10:00:00 2.2 9 Sudeste 16 Sur 0.2 -- -- 97
2018-11-23 09:00:00 2.4 2 Sur 5 Nordeste 0.4 -- -- 97
2018-11-23 08:00:00 2.5 6 Norte 20 Noroeste 0.6 -- -- 98
2018-11-23 07:00:00 3.3 0 Calma 17 Sur 3 -- -- 99
2018-11-23 06:00:00 3.3 9 Sur 18 Sur 1.6 -- -- 99
2018-11-23 05:00:00 3.4 8 Sur 19 Sur 1 -- -- 98
2018-11-23 04:00:00 3.6 8 Sur 17 Sur 0.4 -- -- 98
2018-11-23 03:00:00 3.7 9 Sudeste 19 Sudeste 0 -- -- 97
2018-11-23 02:00:00 3.8 9 Sudeste 22 Sudeste 0 -- -- 96
2018-11-23 01:00:00 3.9 9 Sudeste 19 Sur 0 -- -- 96
2018-11-23 00:00:00 3.9 9 Sudeste 20 Sudeste 0 -- -- 96
2018-11-22 23:00:00 4.1 9 Sudeste 18 Sudeste 0 -- -- 95
2018-11-22 22:00:00 4.3 9 Sudeste 17 Este 0 -- -- 94
2018-11-22 21:00:00 4.3 7 Sudeste 14 Este 0 -- -- 93
2018-11-22 20:00:00 4.5 6 Sudeste 18 Sudeste 0 -- -- 90
2018-11-22 19:00:00 4.7 9 Sudeste 18 Sudeste 0 -- -- 89
2018-11-22 18:00:00 4.8 8 Sudeste 14 Sur 0 -- -- 86
2018-11-22 17:00:00 5.2 10 Sur 20 Sur 0 -- -- 84
2018-11-22 16:00:00 5.3 10 Sur 20 Sudeste 0 -- -- 88
2018-11-22 15:00:00 4.9 8 Sur 21 Sur 0 -- -- 91
2018-11-22 14:00:00 4.4 5 Sur 14 Sur 0 -- -- 96
2018-11-22 13:00:00 3.9 7 Sur 17 Sudoeste 0 -- -- 98
2018-11-22 12:00:00 3 5 Sudeste 21 Sudeste 0 -- -- 99
2018-11-22 11:00:00 2.6 9 Sur 18 Sudeste 0 -- -- 98
2018-11-22 10:00:00 1.9 5 Sur 12 Sudeste 0 -- -- 99
2018-11-22 09:00:00 1.3 4 Sur 9 Sur 0 -- -- 99
2018-11-22 08:00:00 1.2 2 Oeste 8 Sudoeste 0 -- -- 98
2018-11-22 07:00:00 1.5 3 Sur 14 Sudeste 0 -- -- 98
2018-11-22 06:00:00 1.7 8 Sudeste 14 Sudeste 0 -- -- 98
2018-11-22 05:00:00 1.9 5 Sur 14 Sur 0 -- -- 98
2018-11-22 04:00:00 1.9 5 Sur 14 Sur 0 -- -- 97
2018-11-22 03:00:00 2.1 3 Sur 18 Sudoeste 0 -- -- 96
2018-11-22 02:00:00 2.6 7 Sur 20 Sudoeste 0 -- -- 97
2018-11-22 01:00:00 2.6 5 Sur 17 Sur 0.2 -- -- 97
2018-11-22 00:00:00 2.5 2 Este 13 Este 0 -- -- 96
2018-11-21 23:00:00 2.7 4 Sudeste 8 Este 0.2 -- -- 96
2018-11-21 22:00:00 2.8 6 Este 16 Sudeste 0.8 -- -- 96
2018-11-21 21:00:00 2.8 6 Sudeste 13 Sur 0.4 -- -- 96
2018-11-21 20:00:00 2.5 2 Sudeste 10 Sudoeste 0 -- -- 93
2018-11-21 19:00:00 3.2 3 Sur 16 Sudoeste 0 -- -- 93
2018-11-21 18:00:00 3.5 7 Sudoeste 22 Sudoeste 2.2 -- -- 90
2018-11-21 17:00:00 5.1 6 Sudoeste 21 Sur 0 -- -- 83
2018-11-21 16:00:00 5.9 10 Sudoeste 20 Sudoeste 0 -- -- 80
2018-11-21 15:00:00 5.9 8 Sudoeste 28 Sudoeste 0 -- -- 81
2018-11-21 14:00:00 6.9 16 Sudoeste 36 Sudoeste 0 -- -- 75
2018-11-21 13:00:00 6 10 Sur 34 Sudoeste 0 -- -- 80
2018-11-21 12:00:00 4.5 14 Sudoeste 36 Sudoeste 0.2 -- -- 86
2018-11-21 11:00:00 4.5 15 Sudoeste 40 Sudoeste 0 -- -- 89
2018-11-21 10:00:00 4 16 Sudoeste 37 Sudoeste 0 -- -- 95
2018-11-21 09:00:00 3.1 6 Sudoeste 22 Oeste 0 -- -- 95
2018-11-21 08:00:00 3.1 5 Sudoeste 24 Sudoeste 0.2 -- -- 95
2018-11-21 07:00:00 3.7 11 Oeste 32 Sudoeste 1.2 -- -- 96
2018-11-21 06:00:00 3.5 12 Sudoeste 33 Sudoeste 1 -- -- 97
2018-11-21 05:00:00 3.7 14 Sudoeste 26 Sudoeste 0.4 -- -- 97
2018-11-21 04:00:00 3.4 8 Sudoeste 22 Oeste 0 -- -- 97
2018-11-21 03:00:00 2.9 4 Oeste 20 Oeste 0.2 -- -- 96
2018-11-21 02:00:00 2.6 5 Sudoeste 17 Oeste 0 -- -- 95
2018-11-21 01:00:00 3 6 Sur 15 Sur 0.2 -- -- 96
2018-11-21 00:00:00 3 4 Sudeste 13 Sur 0.4 -- -- 96
2018-11-20 23:00:00 3.1 6 Sudeste 15 Sudeste 0 -- -- 95
2018-11-20 22:00:00 3.7 4 Sudeste 13 Sudeste 0 -- -- 96
2018-11-20 21:00:00 3.6 4 Sudoeste 26 Sudoeste 0.2 -- -- 96
2018-11-20 20:00:00 3 6 Sudeste 24 Sudeste 0 -- -- 96
2018-11-20 19:00:00 2.8 9 Sudeste 16 Sudeste 0 -- -- 94
2018-11-20 18:00:00 3.3 3 Sudeste 12 Sudoeste 0.2 -- -- 92
2018-11-20 17:00:00 3.8 3 Este 28 Oeste 1.6 -- -- 92
2018-11-20 16:00:00 5.7 8 Sudoeste 26 Oeste 0 -- -- 86
2018-11-20 15:00:00 6.6 8 Sudoeste 19 Oeste 0 -- -- 85
2018-11-20 14:00:00 5.2 9 Sudoeste 31 Sudoeste 0.4 -- -- 92
2018-11-20 13:00:00 5.3 7 Sudoeste 20 Sudoeste 0 -- -- 94
2018-11-20 12:00:00 5.3 8 Sudoeste 19 Oeste 1.8 -- -- 95
2018-11-20 11:00:00 4.7 9 Sudoeste 24 Sudoeste 1.2 -- -- 96
2018-11-20 10:00:00 4.7 6 Sur 15 Sudoeste 0.6 -- -- 98
2018-11-20 09:00:00 3.8 3 Sudeste 7 Este 0.4 -- -- 98
2018-11-20 08:00:00 3.3 0 Calma 4 Sudoeste 0.2 -- -- 98
2018-11-20 07:00:00 3.1 2 Norte 6 Norte 0.4 -- -- 98
2018-11-20 06:00:00 3 2 Norte 6 Norte 0.4 -- -- 97
2018-11-20 05:00:00 2.6 2 Noroeste 4 Sudoeste 0 -- -- 98
2018-11-20 04:00:00 2.2 3 Noroeste 8 Noroeste 0.2 -- -- 97
2018-11-20 03:00:00 1.6 0 Calma 5 Norte 0 -- -- 96
2018-11-20 02:00:00 1.9 3 Norte 8 Norte 0 -- -- 97
2018-11-20 01:00:00 0.7 6 Norte 10 Norte 0 -- -- 97
2018-11-20 00:00:00 0.2 0 Calma 9 Norte 0 -- -- 94
2018-11-19 23:00:00 1.4 8 Norte 12 Noroeste 0 -- -- 95
2018-11-19 22:00:00 1.4 4 Norte 5 Noroeste 0 -- -- 94
2018-11-19 21:00:00 2.1 3 Oeste 7 Norte 0 -- -- 91
2018-11-19 20:00:00 3.3 6 Oeste 14 Sudoeste 0 -- -- 90
2018-11-19 19:00:00 4.4 5 Norte 8 Norte 0 -- -- 89
2018-11-19 18:00:00 6.6 0 Calma 12 Este 0 -- -- 81
2018-11-19 17:00:00 7.7 8 Este 14 Este 0 -- -- 79
2018-11-19 16:00:00 8.4 3 Nordeste 14 Oeste 0 -- -- 68
2018-11-19 15:00:00 8.7 4 Sudeste 13 Este 0 -- -- 64
2018-11-19 14:00:00 8.1 6 Nordeste 17 Este 0 -- -- 72
2018-11-19 13:00:00 8.3 9 Nordeste 20 Este 0 -- -- 74
2018-11-19 12:00:00 7.9 3 Noroeste 10 Noroeste 0 -- -- 83
2018-11-19 11:00:00 5.4 6 Este 10 Este 0 -- -- 92
2018-11-19 10:00:00 5.2 0 Calma 0 Calma 0 -- -- 97
2018-11-19 09:00:00 4.6 0 Calma 4 Sudoeste 0 -- -- 98
2018-11-19 08:00:00 4.5 3 Sudoeste 5 Sudoeste 0 -- -- 98
2018-11-19 07:00:00 4.5 0 Calma 6 Sudeste 0 -- -- 98
2018-11-19 06:00:00 4.6 4 Sur 10 Sur 0 -- -- 98
2018-11-19 05:00:00 4.6 5 Sur 9 Sur 0 -- -- 97
2018-11-19 04:00:00 4.6 5 Sudoeste 13 Sur 0.2 -- -- 97
2018-11-19 03:00:00 4.6 5 Sur 18 Sudeste 0 -- -- 96
2018-11-19 02:00:00 4.6 6 Sur 19 Sudeste 0.2 -- -- 96
2018-11-19 01:00:00 4.6 5 Sur 24 Sudeste 0.2 -- -- 96
2018-11-19 00:00:00 4.6 10 Sudeste 21 Sur 0.2 -- -- 96
2018-11-18 23:00:00 4.6 6 Sur 24 Sur 0.2 -- -- 96
2018-11-18 22:00:00 4.6 6 Sur 27 Sur 0.4 -- -- 96
2018-11-18 21:00:00 4.7 10 Sur 26 Sur 1 -- -- 96
2018-11-18 20:00:00 4.9 13 Sur 29 Sudeste 0.6 -- -- 94
2018-11-18 19:00:00 5.1 12 Sudeste 30 Sur 0 -- -- 95
2018-11-18 18:00:00 5.4 14 Sudeste 31 Sudeste 0 -- -- 93
2018-11-18 17:00:00 6.1 11 Sur 21 Sur 0 -- -- 91
2018-11-18 16:00:00 6.6 11 Sur 24 Sudeste 0 -- -- 90
2018-11-18 15:00:00 6.7 13 Sudeste 29 Sudeste 0 -- -- 89
2018-11-18 14:00:00 6.8 15 Sudeste 28 Sudeste 0 -- -- 91
2018-11-18 13:00:00 7.3 12 Sur 23 Sudeste 0 -- -- 90
2018-11-18 12:00:00 6.9 9 Sur 19 Sur 0 -- -- 92
2018-11-18 11:00:00 7 8 Sur 14 Sur 0 -- -- 96
2018-11-18 10:00:00 6.4 3 Sur 7 Sur 0 -- -- 98
2018-11-18 09:00:00 6 0 Calma 3 Sudeste 0 -- -- 98
2018-11-18 08:00:00 5.9 2 Sur 8 Sudeste 0 -- -- 98
2018-11-18 07:00:00 5.8 4 Sudeste 11 Sudeste 0 -- -- 97
2018-11-18 06:00:00 5.7 3 Sudeste 6 Sudeste 0 -- -- 97
2018-11-18 05:00:00 5.5 0 Calma 2 Este 0 -- -- 96
2018-11-18 04:00:00 5.1 0 Calma 4 Noroeste 0 -- -- 95
2018-11-18 03:00:00 4.9 3 Norte 6 Norte 0 -- -- 95
2018-11-18 02:00:00 4.3 6 Norte 10 Norte 0 -- -- 96
2018-11-18 01:00:00 3.3 7 Norte 10 Norte 0 -- -- 96
2018-11-18 00:00:00 3.2 6 Norte 11 Norte 0 -- -- 95
2018-11-17 23:00:00 4 9 Norte 12 Norte 0 -- -- 94
2018-11-17 22:00:00 4.6 9 Norte 10 Norte 0 -- -- 94
2018-11-17 21:00:00 6 7 Norte 10 Norte 0 -- -- 91
2018-11-17 20:00:00 5.2 4 Noroeste 9 Norte 0 -- -- 93
2018-11-17 19:00:00 6 7 Norte 9 Norte 0 -- -- 89
2018-11-17 18:00:00 9.1 3 Sudoeste 11 Sur 0 -- -- 78
2018-11-17 17:00:00 11.1 8 Sur 21 Sudeste 0 -- -- 74
2018-11-17 16:00:00 11.8 12 Sudeste 21 Sudeste 0 -- -- 70
2018-11-17 15:00:00 12.1 9 Sudeste 19 Sudeste 0 -- -- 70
2018-11-17 14:00:00 10.9 10 Sudeste 16 Sudeste 0 -- -- 80
2018-11-17 13:00:00 10.6 10 Sur 17 Sur 0 -- -- 82
2018-11-17 12:00:00 10 5 Sur 10 Sudeste 0 -- -- 88
2018-11-17 11:00:00 7.7 5 Sudeste 9 Sudeste 0 -- -- 94
2018-11-17 10:00:00 7.1 6 Sudeste 9 Sudeste 0 -- -- 96
2018-11-17 09:00:00 6.8 0 Calma 8 Sudeste 0 -- -- 96
2018-11-17 08:00:00 6.8 3 Sur 8 Sudeste 0 -- -- 96
2018-11-17 07:00:00 7 4 Sudeste 6 Sudeste 0 -- -- 96
2018-11-17 06:00:00 7.1 5 Sur 12 Sur 0 -- -- 96
2018-11-17 05:00:00 7.3 9 Sur 13 Sur 0 -- -- 96
2018-11-17 04:00:00 7.5 5 Sur 9 Sudeste 0 -- -- 96
2018-11-17 03:00:00 7.7 5 Sudoeste 7 Sudoeste 0 -- -- 96
2018-11-17 02:00:00 7.8 0 Calma 7 Sur 0 -- -- 96
2018-11-17 01:00:00 8 3 Sur 7 Sudoeste 0 -- -- 95
2018-11-17 00:00:00 8.2 7 Sudeste 12 Sudeste 0 -- -- 95
2018-11-16 23:00:00 8.3 4 Sur 13 Sur 0 -- -- 95
2018-11-16 22:00:00 8.1 0 Calma 4 Sur 0 -- -- 94
2018-11-16 21:00:00 8.2 3 Sudoeste 7 Sudoeste 0 -- -- 92
2018-11-16 20:00:00 8.7 4 Sudoeste 8 Sur 0 -- -- 93
2018-11-16 19:00:00 8.8 5 Sudoeste 8 Sur 0 -- -- 91
2018-11-16 18:00:00 9.7 2 Sur 7 Sur 0 -- -- 90
2018-11-16 17:00:00 10.7 3 Sur 12 Sur 0 -- -- 86
2018-11-16 16:00:00 10.9 9 Sur 17 Sudeste 0.4 -- -- 86
2018-11-16 15:00:00 11.3 6 Sur 15 Sudeste 0 -- -- 80
2018-11-16 14:00:00 10.8 8 Sur 17 Sur 0 -- -- 83
2018-11-16 13:00:00 10.5 11 Sur 22 Sur 0 -- -- 85
2018-11-16 12:00:00 10.5 10 Sur 16 Sudeste 0 -- -- 84
2018-11-16 11:00:00 9.6 4 Sudoeste 9 Sur 0 -- -- 91
2018-11-16 10:00:00 7.9 0 Calma 4 Sur 0 -- -- 98
2018-11-16 09:00:00 6.3 0 Calma 6 Norte 0 -- -- 97
2018-11-16 08:00:00 6.2 0 Calma 4 Nordeste 0 -- -- 95
2018-11-16 07:00:00 7.5 4 Norte 5 Norte 0 -- -- 96
2018-11-16 06:00:00 7.4 0 Calma 3 Nordeste 0 -- -- 96
2018-11-16 05:00:00 7.2 0 Calma 4 Norte 0 -- -- 96
2018-11-16 04:00:00 6.7 3 Norte 8 Norte 0 -- -- 97
2018-11-16 03:00:00 6.3 5 Norte 9 Norte 0 -- -- 97
2018-11-16 02:00:00 5.6 4 Norte 9 Norte 0 -- -- 97
2018-11-16 01:00:00 4.8 6 Norte 10 Norte 0 -- -- 97
2018-11-16 00:00:00 4.2 8 Norte 12 Norte 0 -- -- 96
2018-11-15 23:00:00 4.7 5 Norte 10 Norte 0 -- -- 95
2018-11-15 22:00:00 5.1 5 Norte 9 Norte 0 -- -- 95
2018-11-15 21:00:00 5.6 7 Norte 9 Norte 0 -- -- 94
2018-11-15 20:00:00 7.3 3 Nordeste 7 Nordeste 0 -- -- 90
2018-11-15 19:00:00 9 2 Este 8 Este 0 -- -- 88
2018-11-15 18:00:00 9.8 5 Este 12 Este 0 -- -- 83
2018-11-15 17:00:00 11.3 5 Sudoeste 10 Sudeste 0 -- -- 81
2018-11-15 16:00:00 11.2 5 Sur 10 Sudeste 0 -- -- 80
2018-11-15 15:00:00 10.5 4 Sur 16 Sudeste 0 -- -- 88
2018-11-15 14:00:00 11.2 6 Sur 12 Sur 0 -- -- 82
2018-11-15 13:00:00 10.4 3 Sudeste 10 Sudeste 0 -- -- 84
2018-11-15 12:00:00 9.6 4 Sur 12 Sur 0 -- -- 89
2018-11-15 11:00:00 8.8 6 Sudoeste 15 Sur 0 -- -- 95
2018-11-15 10:00:00 8 8 Sur 16 Sudoeste 0 -- -- 97
2018-11-15 09:00:00 7.8 5 Sur 17 Sudeste 0 -- -- 97
2018-11-15 08:00:00 7.9 9 Sur 18 Sudeste 0 -- -- 96
2018-11-15 07:00:00 8 4 Sur 8 Sur 0 -- -- 96
2018-11-15 06:00:00 8.1 3 Sur 9 Sudoeste 0 -- -- 95
2018-11-15 05:00:00 8.1 3 Sur 9 Sudoeste 0 -- -- 95
2018-11-15 04:00:00 8.2 5 Sudoeste 12 Sudoeste 0 -- -- 94
2018-11-15 03:00:00 8.4 4 Sur 9 Sur 0 -- -- 94
2018-11-15 02:00:00 8.6 6 Sudoeste 12 Sur 0 -- -- 95
2018-11-15 01:00:00 8.7 5 Sur 11 Sur 0 -- -- 95
2018-11-15 00:00:00 8.6 5 Sur 9 Sur 0 -- -- 94
2018-11-14 23:00:00 8.5 5 Sur 12 Sur 0 -- -- 94
2018-11-14 22:00:00 8.3 2 Sudeste 3 Sudeste 0 -- -- 93
2018-11-14 21:00:00 8.5 0 Calma 8 Sudoeste 0 -- -- 93
2018-11-14 20:00:00 8 3 Sur 8 Sudoeste 0 -- -- 91
2018-11-14 19:00:00 7.5 5 Norte 7 Norte 0 -- -- 90
2018-11-14 18:00:00 9.6 0 Calma 8 Sudoeste 0 -- -- 81
2018-11-14 17:00:00 11.8 6 Sudoeste 17 Sur 0 -- -- 76
2018-11-14 16:00:00 12.2 7 Sur 19 Sur 0 -- -- 75
2018-11-14 15:00:00 12.1 6 Sur 15 Sudoeste 0 -- -- 79
2018-11-14 14:00:00 12.6 11 Sur 22 Sur 0 -- -- 76
2018-11-14 13:00:00 12.4 12 Sur 19 Sudoeste 0 -- -- 78
2018-11-14 12:00:00 9.8 3 Sudeste 7 Sudeste 0 -- -- 89
2018-11-14 11:00:00 8.5 5 Sur 10 Sur 0 -- -- 97
2018-11-14 10:00:00 7 0 Calma 6 Noroeste 0 -- -- 99
2018-11-14 09:00:00 3.9 4 Norte 10 Noroeste 0 -- -- 98
2018-11-14 08:00:00 2.7 6 Norte 11 Norte 0 -- -- 98
2018-11-14 07:00:00 3.5 8 Norte 11 Noroeste 0 -- -- 98
2018-11-14 06:00:00 2 6 Norte 9 Norte 0 -- -- 98
2018-11-14 05:00:00 2 3 Norte 9 Norte 0 -- -- 97
2018-11-14 04:00:00 2 6 Norte 9 Norte 0 -- -- 97
2018-11-14 03:00:00 2.2 6 Norte 9 Norte 0 -- -- 96
2018-11-14 02:00:00 2 5 Norte 8 Noroeste 0 -- -- 96
2018-11-14 01:00:00 2.2 5 Norte 9 Norte 0 -- -- 95
2018-11-14 00:00:00 2.5 5 Norte 9 Norte 0 -- -- 94
2018-11-13 23:00:00 3.5 5 Norte 11 Norte 0 -- -- 92
2018-11-13 22:00:00 6 10 Norte 13 Norte 0 -- -- 92
2018-11-13 21:00:00 6.9 5 Norte 9 Norte 0 -- -- 92
2018-11-13 20:00:00 7.4 3 Norte 7 Norte 0 -- -- 93
2018-11-13 19:00:00 7.2 4 Norte 8 Norte 0 -- -- 92
2018-11-13 18:00:00 9.7 2 Noroeste 10 Sudoeste 0 -- -- 84
2018-11-13 17:00:00 12.6 5 Sur 11 Sudeste 0 -- -- 76
2018-11-13 16:00:00 13.5 7 Sur 18 Sur 0 -- -- 69
2018-11-13 15:00:00 15.1 10 Sur 17 Sur 0 -- -- 66
2018-11-13 14:00:00 14.2 5 Sur 14 Sur 0 -- -- 74
2018-11-13 13:00:00 13.2 5 Sur 16 Sudoeste 0 -- -- 75
2018-11-13 12:00:00 12.6 5 Sur 12 Sur 0 -- -- 81
2018-11-13 11:00:00 11 3 Norte 10 Norte 0 -- -- 82
2018-11-13 10:00:00 9.3 5 Norte 11 Norte 0 -- -- 94
2018-11-13 09:00:00 6 3 Norte 9 Norte 0 -- -- 99
2018-11-13 08:00:00 3.2 5 Norte 8 Norte 0 -- -- 96
2018-11-13 07:00:00 4.8 4 Norte 9 Norte 0 -- -- 96
2018-11-13 06:00:00 6.1 3 Norte 14 Norte 0 -- -- 95
2018-11-13 05:00:00 6.1 6 Norte 12 Norte 0 -- -- 97
2018-11-13 04:00:00 4.9 4 Norte 11 Norte 0 -- -- 97
2018-11-13 03:00:00 5.4 7 Noroeste 10 Noroeste 0.2 -- -- 96
2018-11-13 02:00:00 6.6 5 Norte 9 Norte 0 -- -- 96
2018-11-13 01:00:00 7 4 Norte 8 Norte 0 -- -- 96
2018-11-13 00:00:00 7.2 3 Norte 8 Norte 0.8 -- -- 96
2018-11-12 23:00:00 7.3 0 Calma 5 Norte 0.6 -- -- 96
2018-11-12 22:00:00 7.4 0 Calma 5 Norte 1 -- -- 95
2018-11-12 21:00:00 7.6 0 Calma 7 Norte 0.2 -- -- 93
2018-11-12 20:00:00 7.5 5 Nordeste 9 Nordeste 0 -- -- 94
2018-11-12 19:00:00 7.1 3 Noroeste 6 Sudoeste 0 -- -- 93
2018-11-12 18:00:00 8 4 Sudoeste 5 Sudeste 0 -- -- 88
2018-11-12 17:00:00 9.1 2 Sudoeste 12 Oeste 0 -- -- 86
2018-11-12 16:00:00 9.6 5 Sudoeste 15 Sudoeste 0 -- -- 87
2018-11-12 15:00:00 9.9 5 Sur 13 Sudoeste 0 -- -- 84
2018-11-12 14:00:00 9.3 6 Sudoeste 26 Sudoeste 0 -- -- 88
2018-11-12 13:00:00 9.5 14 Sur 27 Sur 0 -- -- 83
2018-11-12 12:00:00 8.6 12 Sur 25 Sur 0 -- -- 89
2018-11-12 11:00:00 8.1 15 Sur 26 Sur 0 -- -- 94
2018-11-12 10:00:00 7.5 11 Sur 21 Sur 0 -- -- 96
2018-11-12 09:00:00 7.2 8 Sur 22 Sur 0 -- -- 96
2018-11-12 08:00:00 7.3 13 Sur 25 Sur 0 -- -- 96
2018-11-12 07:00:00 7.2 14 Sur 24 Sur 0 -- -- 97
2018-11-12 06:00:00 7.1 15 Sur 26 Sur 0 -- -- 97
2018-11-12 05:00:00 7.2 10 Sur 22 Sudeste 0 -- -- 96
2018-11-12 04:00:00 7.4 11 Sur 26 Sur 0 -- -- 95
2018-11-12 03:00:00 7.6 12 Sur 31 Sur 0 -- -- 92
2018-11-12 02:00:00 8.5 15 Sur 36 Sudeste 0 -- -- 91
2018-11-12 01:00:00 9 21 Sur 46 Sur 0 -- -- 93
2018-11-12 00:00:00 9 15 Sur 34 Sur 0 -- -- 94
2018-11-11 23:00:00 8.6 16 Sur 33 Sur 0 -- -- 95
2018-11-11 22:00:00 8.8 17 Sur 36 Sudoeste 0 -- -- 93
2018-11-11 21:00:00 9 16 Sudoeste 32 Sudoeste 0 -- -- 93
2018-11-11 20:00:00 9 14 Sur 25 Sur 0 -- -- 92
2018-11-11 19:00:00 9.2 10 Sur 24 Sur 0 -- -- 91
2018-11-11 18:00:00 9.3 14 Sur 32 Sur 0 -- -- 88
2018-11-11 17:00:00 9.5 18 Sur 37 Sur 0 -- -- 86
2018-11-11 16:00:00 9.4 24 Sur 39 Sudeste 0 -- -- 89
2018-11-11 15:00:00 10.5 19 Sur 37 Sudoeste 0.2 -- -- 88
2018-11-11 14:00:00 11.7 19 Sudoeste 40 Sudoeste 0 -- -- 81
2018-11-11 13:00:00 11.8 14 Sur 31 Sudoeste 0 -- -- 80
2018-11-11 12:00:00 11.8 18 Sudoeste 43 Sudoeste 0 -- -- 79
2018-11-11 11:00:00 10.9 21 Sudoeste 49 Sudoeste 0 -- -- 76
2018-11-11 10:00:00 10.2 21 Sudoeste 45 Oeste 0 -- -- 77
2018-11-11 09:00:00 8.8 15 Oeste 44 Sudoeste 0 -- -- 82
2018-11-11 08:00:00 8.3 12 Sudoeste 50 Sudoeste 0 -- -- 87
2018-11-11 07:00:00 8.2 21 Sudoeste 46 Sudoeste 0 -- -- 94
2018-11-11 06:00:00 7.8 14 Sudoeste 36 Sudoeste 0 -- -- 94
2018-11-11 05:00:00 7.3 12 Sur 36 Sudoeste 0 -- -- 92
2018-11-11 04:00:00 7.5 15 Sur 35 Sudoeste 0 -- -- 85
2018-11-11 03:00:00 7.3 18 Sudoeste 39 Sudoeste 0 -- -- 85
2018-11-11 02:00:00 7.3 13 Sudoeste 42 Sudoeste 0 -- -- 85
2018-11-11 01:00:00 7.3 19 Sudoeste 44 Sudoeste 0 -- -- 82
2018-11-11 00:00:00 7.4 23 Sudoeste 47 Sudoeste 0.2 -- -- 78
2018-11-10 23:00:00 7.1 9 Sudoeste 25 Oeste 0 -- -- 81
2018-11-10 22:00:00 7.3 8 Sudoeste 35 Oeste 0 -- -- 81
2018-11-10 21:00:00 7.9 10 Oeste 47 Oeste 0 -- -- 77
2018-11-10 20:00:00 8.5 14 Oeste 45 Oeste 0 -- -- 84
2018-11-10 19:00:00 8.8 18 Sudoeste 47 Oeste 0 -- -- 86
2018-11-10 18:00:00 8.7 21 Oeste 51 Oeste 0.2 -- -- 87
2018-11-10 17:00:00 8.9 8 Sur 21 Sur 0.8 -- -- 96
2018-11-10 16:00:00 9.2 4 Sudeste 17 Sudoeste 1.2 -- -- 95
2018-11-10 15:00:00 9.6 13 Sudoeste 23 Sudoeste 1.2 -- -- 96
2018-11-10 14:00:00 9.4 9 Sur 25 Sudoeste 0.6 -- -- 96
2018-11-10 13:00:00 9.5 8 Sur 28 Sudoeste 0.2 -- -- 97
2018-11-10 12:00:00 8.9 12 Sur 27 Sur 0.8 -- -- 98
2018-11-10 11:00:00 8 10 Sur 31 Sur 1.4 -- -- 98
2018-11-10 10:00:00 6.9 9 Sur 19 Sur 1.8 -- -- 98
2018-11-10 09:00:00 6.1 10 Sur 18 Sur 2.2 -- -- 98
2018-11-10 08:00:00 5.7 12 Sur 24 Sudeste 1.8 -- -- 97
2018-11-10 07:00:00 5.9 11 Sur 24 Sur 0.8 -- -- 96
2018-11-10 06:00:00 7.1 14 Sur 36 Sudoeste 0.4 -- -- 94
2018-11-10 05:00:00 7.6 18 Sudoeste 44 Oeste 0 -- -- 91
2018-11-10 04:00:00 7.4 24 Oeste 45 Oeste 0 -- -- 94
2018-11-10 03:00:00 6.8 11 Oeste 27 Oeste 0.2 -- -- 95
2018-11-10 02:00:00 6.1 9 Sur 30 Oeste 0 -- -- 96
2018-11-10 01:00:00 5.7 8 Sur 24 Sudoeste 0 -- -- 96
2018-11-10 00:00:00 5 7 Sudeste 24 Sudeste 0 -- -- 94